Time;durP1;ratioP1;P1;durP2;ratioP2;P2;SDS_P1;SDS_P2;PMS_P1;PMS_P2;Temp;Humidity;BMP_temperature;BMP_pressure;BME280_temperature;BME280_humidity;BME280_pressure;Samples;Min_cycle;Max_cycle;Signal;HPM_P1;HPM_P2
2023/02/23 00:00:19;;;;;;;45.03;28.73;;;;;;;2.94;100.00;92996.47;5070401;28;20416;-71
2023/02/23 00:02:48;;;;;;;48.85;28.38;;;;;;;2.91;100.00;92992.53;5057538;28;20060;-72
2023/02/23 00:05:15;;;;;;;42.20;26.75;;;;;;;2.72;100.00;92967.59;5070939;28;20139;-71
2023/02/23 00:07:43;;;;;;;42.17;24.83;;;;;;;2.82;100.00;92991.00;5069812;28;20475;-71
2023/02/23 00:10:12;;;;;;;37.20;22.75;;;;;;;2.78;100.00;92988.00;5070409;28;20048;-71
2023/02/23 00:12:41;;;;;;;35.28;22.75;;;;;;;2.76;100.00;92987.38;5069066;28;20064;-71
2023/02/23 00:15:09;;;;;;;30.95;19.88;;;;;;;2.77;100.00;92995.78;5069809;28;20093;-72
2023/02/23 00:17:36;;;;;;;26.42;16.65;;;;;;;2.65;100.00;92975.84;5069880;28;20464;-71
2023/02/23 00:20:10;;;;;;;24.27;13.32;;;;;;;2.70;100.00;92993.13;5068307;28;20049;-71
2023/02/23 00:22:39;;;;;;;20.35;12.55;;;;;;;2.69;100.00;92990.75;5069214;28;20049;-71
2023/02/23 00:25:08;;;;;;;16.83;11.25;;;;;;;2.59;100.00;92989.22;5069649;28;20040;-71
2023/02/23 00:27:37;;;;;;;14.73;9.80;;;;;;;2.61;100.00;92984.78;5069984;28;20048;-70
2023/02/23 00:30:07;;;;;;;12.25;8.70;;;;;;;2.52;100.00;92978.97;5069587;28;20413;-70
2023/02/23 00:32:33;;;;;;;12.93;7.68;;;;;;;2.46;100.00;92992.28;5069583;28;20505;-70
2023/02/23 00:35:00;;;;;;;11.95;8.40;;;;;;;2.50;100.00;92993.53;5069802;28;20070;-70
2023/02/23 00:37:27;;;;;;;15.23;9.23;;;;;;;2.48;100.00;92992.13;5069550;28;20090;-70
2023/02/23 00:39:55;;;;;;;13.95;9.05;;;;;;;2.45;100.00;92980.56;5069721;28;20477;-71
2023/02/23 00:42:22;;;;;;;15.70;9.63;;;;;;;2.42;100.00;92987.69;5069289;28;20160;-70
2023/02/23 00:44:49;;;;;;;14.73;9.95;;;;;;;2.38;100.00;92984.72;5069439;28;20048;-70
2023/02/23 00:47:17;;;;;;;17.92;11.55;;;;;;;2.36;100.00;92981.56;5069356;28;20040;-70
2023/02/23 00:49:44;;;;;;;17.02;11.10;;;;;;;2.36;100.00;92989.16;5068512;28;20036;-69
2023/02/23 00:52:13;;;;;;;15.15;10.45;;;;;;;2.39;100.00;92986.28;5069630;28;20052;-71
2023/02/23 00:54:40;;;;;;;15.77;10.77;;;;;;;2.42;100.00;92983.44;5069438;28;20042;-70
2023/02/23 00:57:07;;;;;;;16.33;10.35;;;;;;;2.46;100.00;92977.06;5069445;28;20139;-71
2023/02/23 00:59:33;;;;;;;16.88;10.55;;;;;;;2.51;100.00;92974.03;5069471;28;20097;-70
2023/02/23 01:02:00;;;;;;;18.23;11.63;;;;;;;2.56;100.00;92976.06;5069072;28;20090;-70
2023/02/23 01:04:28;;;;;;;20.48;12.52;;;;;;;2.57;100.00;92972.56;5069238;28;20052;-71
2023/02/23 01:06:55;;;;;;;20.58;12.43;;;;;;;2.60;100.00;92969.72;5068237;28;20498;-70
2023/02/23 01:09:26;;;;;;;22.13;12.25;;;;;;;2.56;100.00;92971.00;5069064;28;20052;-70
2023/02/23 01:11:55;;;;;;;21.48;12.23;;;;;;;2.46;100.00;92956.00;5068513;28;20083;-70
2023/02/23 01:14:22;;;;;;;22.92;12.98;;;;;;;2.56;100.00;92968.47;5068361;28;20048;-70
2023/02/23 01:16:49;;;;;;;23.55;15.73;;;;;;;2.49;100.00;92966.59;5069157;28;20067;-71
2023/02/23 01:19:15;;;;;;;23.83;15.25;;;;;;;2.50;100.00;92962.34;5068966;28;20051;-70
2023/02/23 01:21:44;;;;;;;21.63;14.55;;;;;;;2.50;100.00;92967.41;5068914;28;20194;-70
2023/02/23 01:24:12;;;;;;;22.73;14.65;;;;;;;2.47;100.00;92960.13;5069159;28;20048;-70
2023/02/23 01:26:41;;;;;;;20.05;14.20;;;;;;;2.48;100.00;92962.50;5068999;28;20044;-71
2023/02/23 01:29:10;;;;;;;16.92;12.68;;;;;;;2.46;100.00;92958.53;5069276;28;20052;-70
2023/02/23 01:31:38;;;;;;;18.20;12.45;;;;;;;2.44;100.00;92960.47;5069712;28;20459;-70
2023/02/23 01:34:06;;;;;;;21.27;13.00;;;;;;;2.16;100.00;92928.72;5068805;28;20052;-71
2023/02/23 01:36:34;;;;;;;20.77;11.75;;;;;;;2.34;100.00;92956.38;5068991;28;20090;-70
2023/02/23 01:39:06;;;;;;;18.23;12.30;;;;;;;2.34;100.00;92969.06;5068856;28;20094;-70
2023/02/23 01:41:34;;;;;;;15.85;10.45;;;;;;;2.30;100.00;92964.47;5068851;28;20036;-71
2023/02/23 01:44:03;;;;;;;14.02;9.68;;;;;;;2.22;100.00;92963.53;5068738;28;20037;-71
2023/02/23 01:46:32;;;;;;;15.27;10.48;;;;;;;2.19;100.00;92963.09;5068515;28;20044;-70
2023/02/23 01:48:59;;;;;;;17.05;10.25;;;;;;;2.18;100.00;92956.44;5068387;28;20052;-71
2023/02/23 01:51:30;;;;;;;16.77;10.75;;;;;;;2.13;100.00;92951.88;5068851;28;20048;-70
2023/02/23 01:54:04;;;;;;;17.15;10.80;;;;;;;2.18;100.00;92956.44;5068621;28;20064;-70
2023/02/23 01:56:34;;;;;;;16.00;11.55;;;;;;;2.18;100.00;92953.91;5068843;28;20041;-71
2023/02/23 01:59:07;;;;;;;18.27;11.18;;;;;;;2.12;100.00;92961.22;5068642;28;20041;-71
2023/02/23 02:01:33;;;;;;;20.85;12.70;;;;;;;2.11;100.00;92953.75;5068721;28;20040;-70
2023/02/23 02:04:05;;;;;;;16.15;11.55;;;;;;;2.10;100.00;92955.53;5068345;28;20048;-70
2023/02/23 02:06:33;;;;;;;19.35;12.40;;;;;;;2.13;100.00;92956.94;5068686;28;20469;-70
2023/02/23 02:09:05;;;;;;;17.88;11.65;;;;;;;2.02;100.00;92950.47;5068276;28;20040;-70
2023/02/23 02:11:35;;;;;;;19.90;10.98;;;;;;;1.90;100.00;92942.41;5068695;28;20045;-70
2023/02/23 02:14:11;;;;;;;15.55;10.88;;;;;;;1.95;100.00;92952.09;5068310;28;20059;-70
2023/02/23 02:17:05;;;;;;;18.00;11.40;;;;;;;2.06;100.00;92959.34;5068383;28;20425;-69
2023/02/23 02:20:31;;;;;;;19.60;11.55;;;;;;;2.01;100.00;92959.03;5061708;28;20553;-70
2023/02/23 02:23:33;;;;;;;16.05;9.80;;;;;;;1.97;100.00;92960.31;5006124;28;20046;-71
2023/02/23 02:26:11;;;;;;;16.45;10.95;;;;;;;1.98;100.00;92954.28;4991756;28;20127;-70
2023/02/23 02:29:12;;;;;;;14.50;9.40;;;;;;;1.96;100.00;92957.00;5068443;28;20048;-70
2023/02/23 02:32:15;;;;;;;18.42;9.85;;;;;;;1.89;100.00;92957.81;5059261;28;20106;-70
2023/02/23 02:35:09;;;;;;;14.10;10.55;;;;;;;1.80;100.00;92962.88;5069018;28;20895;-70
2023/02/23 02:38:09;;;;;;;15.73;10.48;;;;;;;1.80;100.00;92964.63;5071911;28;20052;-70
2023/02/23 02:40:52;;;;;;;14.48;9.10;;;;;;;1.82;100.00;92958.47;5047507;28;20048;-70
2023/02/23 02:43:31;;;;;;;14.18;8.70;;;;;;;1.81;100.00;92959.38;5071996;28;20087;-70
2023/02/23 02:46:04;;;;;;;13.07;8.98;;;;;;;1.81;100.00;92959.38;5071669;28;20037;-70
2023/02/23 02:48:40;;;;;;;14.57;9.55;;;;;;;1.82;100.00;92958.47;5071961;28;20059;-70
2023/02/23 02:51:16;;;;;;;12.90;9.65;;;;;;;1.85;100.00;92957.34;5072019;28;20467;-71
2023/02/23 02:53:54;;;;;;;13.35;8.25;;;;;;;1.87;100.00;92951.13;5071689;28;20123;-70
2023/02/23 02:56:25;;;;;;;13.68;8.88;;;;;;;1.86;100.00;92953.84;5071762;28;20045;-70
2023/02/23 02:58:53;;;;;;;13.73;9.15;;;;;;;1.85;100.00;92952.28;5071790;28;20041;-70
2023/02/23 04:18:16;;;;;;;18.55;11.35;;;;;;;1.51;100.00;92981.91;5070146;28;20093;-70
2023/02/23 04:20:44;;;;;;;18.95;12.10;;;;;;;1.40;100.00;92967.84;5070240;28;20086;-70
2023/02/23 04:23:10;;;;;;;20.30;11.43;;;;;;;1.47;100.00;92975.59;5070184;28;20044;-71
2023/02/23 04:25:37;;;;;;;17.92;12.05;;;;;;;1.46;100.00;92979.06;5069805;28;20098;-71
2023/02/23 04:28:04;;;;;;;21.67;14.85;;;;;;;1.46;100.00;92981.59;5069949;28;20048;-70
2023/02/23 04:30:31;;;;;;;20.42;13.68;;;;;;;1.47;100.00;92978.13;5069875;28;20086;-70
2023/02/23 04:32:59;;;;;;;21.42;14.57;;;;;;;1.49;100.00;92975.44;5069621;28;20106;-70
2023/02/23 04:35:30;;;;;;;24.42;14.98;;;;;;;1.51;100.00;92976.03;5069526;28;20062;-71
2023/02/23 04:37:57;;;;;;;23.98;14.82;;;;;;;1.49;100.00;92976.22;5069516;28;20502;-70
2023/02/23 04:40:25;;;;;;;21.50;13.45;;;;;;;1.46;100.00;92962.16;5069518;28;20453;-70
2023/02/23 04:42:51;;;;;;;23.88;15.35;;;;;;;1.48;100.00;92969.56;5069348;28;20045;-70
2023/02/23 04:45:19;;;;;;;20.95;13.18;;;;;;;1.52;100.00;92977.66;5069217;28;20538;-70
2023/02/23 04:47:46;;;;;;;20.92;12.18;;;;;;;1.51;100.00;92976.84;5068989;28;20440;-70
2023/02/23 04:50:13;;;;;;;19.10;12.05;;;;;;;1.51;100.00;92978.59;5070252;28;20048;-71
2023/02/23 04:52:42;;;;;;;20.30;13.52;;;;;;;1.51;100.00;92976.84;5069045;28;20049;-70
2023/02/23 04:55:15;;;;;;;19.02;12.23;;;;;;;1.52;100.00;92980.97;5069702;28;20040;-70
2023/02/23 04:57:42;;;;;;;19.42;11.70;;;;;;;1.49;100.00;92976.22;5069360;28;20098;-70
2023/02/23 05:00:10;;;;;;;19.80;12.43;;;;;;;1.37;100.00;92959.75;5069126;28;20082;-71
2023/02/23 05:02:37;;;;;;;19.52;13.13;;;;;;;1.38;100.00;92964.69;5069460;28;20052;-70
2023/02/23 05:05:04;;;;;;;17.35;11.40;;;;;;;1.45;100.00;92974.97;5068826;28;20542;-70
2023/02/23 05:07:30;;;;;;;18.25;10.90;;;;;;;1.41;100.00;92976.22;5069335;28;20041;-70
2023/02/23 05:09:58;;;;;;;12.30;8.20;;;;;;;1.37;100.00;92975.75;5068919;28;20150;-71
2023/02/23 05:12:25;;;;;;;13.48;7.93;;;;;;;1.31;100.00;92969.56;5068878;28;20041;-70
2023/02/23 05:14:52;;;;;;;11.70;8.77;;;;;;;1.28;100.00;92974.97;5069018;28;20053;-70
2023/02/23 05:17:19;;;;;;;13.95;8.95;;;;;;;1.20;100.00;92970.69;5068974;28;20049;-70
2023/02/23 05:19:45;;;;;;;12.45;8.15;;;;;;;1.20;100.00;92980.81;5068957;28;20117;-70
2023/02/23 05:22:12;;;;;;;11.27;8.43;;;;;;;1.17;100.00;92980.34;5069114;28;20125;-70
2023/02/23 05:24:39;;;;;;;15.82;9.30;;;;;;;1.14;100.00;92978.91;5068521;28;20463;-70
2023/02/23 05:27:07;;;;;;;11.05;8.57;;;;;;;1.08;100.00;92966.91;5068706;28;20437;-70
2023/02/23 05:29:34;;;;;;;17.23;10.27;;;;;;;1.12;100.00;92967.38;5068919;28;20036;-70
2023/02/23 05:32:00;;;;;;;16.42;11.20;;;;;;;1.19;100.00;92988.56;5068797;28;20462;-71
2023/02/23 05:34:27;;;;;;;20.88;12.27;;;;;;;1.15;100.00;92982.25;5068493;28;20044;-71
2023/02/23 05:36:54;;;;;;;22.63;14.32;;;;;;;1.20;100.00;92990.13;5068950;28;20094;-71
2023/02/23 05:39:21;;;;;;;24.95;14.10;;;;;;;1.13;100.00;92979.88;5068324;28;20555;-71
2023/02/23 05:41:48;;;;;;;25.05;15.10;;;;;;;1.27;100.00;92998.69;5068546;28;20102;-71
2023/02/23 05:44:16;;;;;;;31.95;18.48;;;;;;;1.30;100.00;93002.66;5068483;28;20045;-72
2023/02/23 05:46:45;;;;;;;33.53;20.35;;;;;;;1.31;100.00;93007.53;5068540;28;20090;-71
2023/02/23 05:49:11;;;;;;;31.00;19.48;;;;;;;1.35;100.00;93007.22;5068731;28;20036;-71
2023/02/23 05:51:38;;;;;;;29.83;17.88;;;;;;;1.36;100.00;93009.59;5068706;28;20090;-71
2023/02/23 05:54:06;;;;;;;27.52;17.27;;;;;;;1.41;100.00;93016.72;5068473;28;20055;-71
2023/02/23 05:56:32;;;;;;;34.78;18.65;;;;;;;1.45;100.00;93016.22;5068371;28;20509;-71
2023/02/23 05:59:01;;;;;;;40.53;21.35;;;;;;;1.45;100.00;93011.16;5068043;28;20114;-71
2023/02/23 06:01:29;;;;;;;40.92;21.13;;;;;;;1.58;100.00;93025.13;5068306;28;20558;-71
2023/02/23 06:03:56;;;;;;;43.33;24.23;;;;;;;1.60;100.00;93029.06;5068357;28;21295;-71
2023/02/23 06:06:24;;;;;;;39.15;22.75;;;;;;;1.65;100.00;93035.38;5068358;28;20103;-71
2023/02/23 06:08:51;;;;;;;37.22;24.50;;;;;;;1.71;100.00;93043.13;5062616;28;20058;-71
2023/02/23 06:11:18;;;;;;;41.33;24.13;;;;;;;1.78;100.00;93040.75;5066644;28;20483;-71
2023/02/23 06:13:44;;;;;;;36.95;23.23;;;;;;;1.82;100.00;93036.16;5067685;28;20048;-71
2023/02/23 06:16:11;;;;;;;44.05;26.05;;;;;;;1.93;100.00;93045.97;5068079;28;20044;-71
2023/02/23 06:18:39;;;;;;;38.60;23.25;;;;;;;2.05;100.00;93045.63;5068187;28;20094;-71
2023/02/23 06:21:06;;;;;;;35.38;23.20;;;;;;;2.15;100.00;93046.25;5063068;28;20045;-71
2023/02/23 06:23:33;;;;;;;35.75;24.10;;;;;;;2.22;100.00;93047.16;5068618;28;20386;-71
2023/02/23 06:26:00;;;;;;;33.72;22.55;;;;;;;2.03;100.00;93017.16;5068200;28;20409;-71
2023/02/23 06:28:28;;;;;;;38.38;27.20;;;;;;;2.16;100.00;93045.28;5068147;28;20044;-72
2023/02/23 06:30:56;;;;;;;26.42;20.50;;;;;;;2.28;100.00;93048.28;5067998;28;20551;-71
2023/02/23 06:33:25;;;;;;;32.95;20.58;;;;;;;2.36;100.00;93048.25;5067636;28;20071;-71
2023/02/23 06:35:53;;;;;;;30.17;19.98;;;;;;;2.35;100.00;93056.00;5067994;28;20047;-71
2023/02/23 06:38:20;;;;;;;28.00;20.58;;;;;;;2.44;100.00;93047.44;5067864;28;20056;-69
2023/02/23 06:40:47;;;;;;;26.17;16.65;;;;;;;2.50;100.00;93059.44;5067740;28;20463;-69
2023/02/23 06:43:14;;;;;;;26.50;19.02;;;;;;;2.67;100.00;93052.59;5067825;28;20086;-71
2023/02/23 06:45:41;;;;;;;25.35;15.98;;;;;;;2.86;100.00;93049.81;5068134;28;20051;-70
2023/02/23 06:48:07;;;;;;;20.92;14.43;;;;;;;3.08;100.00;93048.25;5068065;28;20106;-72
2023/02/23 06:50:34;;;;;;;22.27;14.95;;;;;;;3.24;100.00;93044.06;5068179;28;20048;-72
2023/02/23 06:53:02;;;;;;;22.25;14.82;;;;;;;3.44;100.00;93039.31;5068080;28;20056;-70
2023/02/23 06:55:29;;;;;;;36.88;25.35;;;;;;;3.67;100.00;93048.66;5067849;28;20048;-70
2023/02/23 06:57:56;;;;;;;30.42;21.50;;;;;;;3.83;100.00;93043.44;5067798;28;20036;-71
2023/02/23 07:00:23;;;;;;;37.08;24.08;;;;;;;4.02;100.00;93041.38;5067346;28;20114;-71
2023/02/23 07:02:50;;;;;;;25.45;16.92;;;;;;;4.16;100.00;93047.44;5068068;28;20432;-71
2023/02/23 07:05:17;;;;;;;29.42;18.23;;;;;;;4.37;100.00;93043.41;5068017;28;20045;-71
2023/02/23 07:07:44;;;;;;;36.17;20.02;;;;;;;4.55;100.00;93041.31;5067700;28;20048;-71
2023/02/23 07:10:12;;;;;;;41.58;20.67;;;;;;;4.73;100.00;93045.25;5067950;28;20040;-71
2023/02/23 07:12:39;;;;;;;32.83;19.50;;;;;;;4.99;100.00;93045.75;5071426;28;20052;-70
2023/02/23 07:15:07;;;;;;;36.17;19.60;;;;;;;5.21;100.00;93038.91;5071109;28;20052;-71
2023/02/23 07:17:33;;;;;;;38.33;20.13;;;;;;;5.38;100.00;93038.69;5071162;28;20040;-71
2023/02/23 07:20:00;;;;;;;38.20;21.23;;;;;;;5.44;100.00;93032.84;5066208;28;20451;-71
2023/02/23 07:22:29;;;;;;;46.78;24.33;;;;;;;5.59;100.00;93045.53;5071053;28;20041;-71
2023/02/23 07:24:55;;;;;;;41.88;22.55;;;;;;;5.63;100.00;93041.66;5070973;28;20051;-72
2023/02/23 07:27:24;;;;;;;45.45;23.65;;;;;;;5.80;100.00;93033.75;5071132;28;20040;-72
2023/02/23 07:29:50;;;;;;;53.22;25.38;;;;;;;5.97;100.00;93031.72;5070770;28;20090;-71
2023/02/23 07:32:17;;;;;;;44.42;24.23;;;;;;;6.12;100.00;93031.66;5071063;28;20409;-72
2023/02/23 07:34:44;;;;;;;47.60;24.48;;;;;;;6.30;100.00;93036.28;5070795;28;20091;-71
2023/02/23 07:37:11;;;;;;;49.65;26.35;;;;;;;6.46;100.00;93030.09;5070891;28;20040;-72
2023/02/23 07:39:38;;;;;;;45.05;25.75;;;;;;;6.47;100.00;93029.09;5071113;28;20463;-71
2023/02/23 07:42:04;;;;;;;40.53;22.52;;;;;;;6.46;100.00;93031.84;5070701;28;20094;-71
2023/02/23 07:44:32;;;;;;;45.40;24.88;;;;;;;6.53;100.00;93030.13;5070903;28;20090;-71
2023/02/23 07:46:59;;;;;;;45.75;24.20;;;;;;;6.71;100.00;93033.94;5070743;28;20542;-71
2023/02/23 07:49:26;;;;;;;46.08;23.35;;;;;;;6.80;100.00;93025.91;5070487;28;20041;-71
2023/02/23 07:51:53;;;;;;;42.33;22.90;;;;;;;6.99;100.00;93007.50;5070571;28;20734;-71
2023/02/23 07:54:20;;;;;;;41.33;23.38;;;;;;;7.20;100.00;93007.38;5063729;28;20056;-71
2023/02/23 07:56:47;;;;;;;38.70;19.83;;;;;;;7.20;100.00;93007.38;5070326;28;20044;-71
2023/02/23 07:59:14;;;;;;;34.38;18.88;;;;;;;7.34;100.00;93009.94;5070366;28;20040;-71
2023/02/23 08:01:42;;;;;;;28.10;13.52;;;;;;;7.43;100.00;93019.00;5070553;28;20073;-71
2023/02/23 08:04:09;;;;;;;32.03;16.25;;;;;;;7.41;100.00;93005.63;5070515;28;20109;-71
2023/02/23 08:06:36;;;;;;;21.10;11.25;;;;;;;7.31;100.00;93021.34;5070576;28;20048;-71
2023/02/23 08:09:04;;;;;;;28.50;14.98;;;;;;;7.53;99.85;93007.59;5069927;28;20049;-71
2023/02/23 08:11:31;;;;;;;26.80;14.75;;;;;;;7.85;100.00;93012.91;5070419;28;20094;-71
2023/02/23 08:13:59;;;;;;;27.40;14.70;;;;;;;7.92;97.33;93008.59;5069932;28;20047;-71
2023/02/23 08:16:26;;;;;;;32.05;15.15;;;;;;;8.09;96.26;93018.41;5070264;28;20055;-71
2023/02/23 08:18:54;;;;;;;33.80;15.30;;;;;;;8.31;95.85;93018.97;5070166;28;20098;-72
2023/02/23 08:21:21;;;;;;;30.13;13.82;;;;;;;8.41;92.67;93019.34;5069752;28;20094;-72
2023/02/23 08:23:47;;;;;;;22.88;11.80;;;;;;;8.41;90.07;93021.13;5070666;28;20048;-72
2023/02/23 08:26:14;;;;;;;22.33;11.93;;;;;;;8.54;90.27;93012.66;5067793;28;20562;-72
2023/02/23 08:28:44;;;;;;;20.75;10.65;;;;;;;8.40;89.81;92989.63;5066668;28;20040;-73
2023/02/23 08:31:11;;;;;;;18.98;9.20;;;;;;;8.68;88.12;93013.41;5069496;28;20123;-72
2023/02/23 08:33:38;;;;;;;20.05;10.55;;;;;;;8.69;88.79;93018.31;5069572;28;20048;-71
2023/02/23 08:36:07;;;;;;;23.58;10.13;;;;;;;8.87;89.60;93018.63;5068436;28;20485;-72
2023/02/23 08:38:37;;;;;;;21.48;9.05;;;;;;;9.16;91.09;93027.56;5068730;28;20436;-71
2023/02/23 08:41:05;;;;;;;17.10;9.63;;;;;;;9.23;85.58;93018.06;5060389;28;20048;-71
2023/02/23 08:43:32;;;;;;;18.83;9.10;;;;;;;9.38;85.27;93018.78;5059877;28;20103;-71
2023/02/23 08:45:59;;;;;;;23.88;9.85;;;;;;;9.68;86.63;93013.84;5055981;28;20049;-71
2023/02/23 08:48:25;;;;;;;21.85;10.07;;;;;;;9.90;83.34;93018.63;5066086;28;20048;-71
2023/02/23 08:50:57;;;;;;;18.95;8.65;;;;;;;10.25;85.04;93023.28;5066543;28;20455;-71
2023/02/23 08:53:28;;;;;;;22.83;9.32;;;;;;;10.53;86.40;93014.34;5054741;28;20463;-71
2023/02/23 08:55:56;;;;;;;29.92;9.95;;;;;;;10.67;76.77;93014.97;5064870;28;20094;-72
2023/02/23 08:58:23;;;;;;;20.75;10.13;;;;;;;10.60;77.46;93005.78;5064612;28;20050;-72
2023/02/23 09:00:50;;;;;;;17.00;6.75;;;;;;;10.66;72.03;93025.47;5057583;28;20049;-71
2023/02/23 09:03:16;;;;;;;21.02;7.88;;;;;;;10.48;72.40;93018.53;5046966;28;20103;-71
2023/02/23 09:05:44;;;;;;;25.75;10.43;;;;;;;10.66;74.00;93013.38;5068706;28;20097;-70
2023/02/23 09:08:11;;;;;;;23.33;10.07;;;;;;;10.86;72.60;93014.94;5036752;28;20053;-70
2023/02/23 09:10:39;;;;;;;25.70;9.93;;;;;;;11.16;77.56;93015.97;5054207;28;20056;-70
2023/02/23 09:13:06;;;;;;;29.27;11.15;;;;;;;11.59;77.86;93009.06;5054745;28;20099;-71
2023/02/23 09:15:33;;;;;;;31.65;10.52;;;;;;;11.95;75.54;93014.28;5053533;28;20041;-70
2023/02/23 09:18:01;;;;;;;33.00;10.85;;;;;;;12.21;73.97;93010.50;5069559;28;20121;-71
2023/02/23 09:20:29;;;;;;;29.52;9.23;;;;;;;12.57;73.17;93005.31;5054343;28;20060;-71
2023/02/23 09:22:55;;;;;;;32.92;10.02;;;;;;;12.85;68.61;93008.16;5061901;28;20052;-71
2023/02/23 09:25:22;;;;;;;37.92;11.43;;;;;;;12.55;63.88;93015.84;5054659;28;20045;-71
2023/02/23 09:27:51;;;;;;;29.13;10.48;;;;;;;12.53;68.91;93012.72;5069115;28;20052;-70
2023/02/23 09:30:19;;;;;;;37.55;11.90;;;;;;;12.59;63.92;93017.97;5067741;28;20045;-71
2023/02/23 09:32:46;;;;;;;36.75;12.45;;;;;;;12.63;67.53;93011.38;5068765;28;20071;-70
2023/02/23 09:35:16;;;;;;;33.20;11.10;;;;;;;12.68;65.33;93012.25;5068105;28;20052;-71
2023/02/23 09:37:45;;;;;;;37.30;11.82;;;;;;;13.07;71.19;93011.72;5067827;28;20080;-71
2023/02/23 09:40:16;;;;;;;20.75;8.32;;;;;;;13.08;62.36;93012.47;5066886;28;20102;-71
2023/02/23 09:42:48;;;;;;;28.52;8.13;;;;;;;13.01;66.35;93010.03;5068195;28;20454;-71
2023/02/23 09:45:26;;;;;;;25.90;8.65;;;;;;;12.96;62.92;93021.03;5068672;28;20514;-71
2023/02/23 09:48:08;;;;;;;29.67;10.55;;;;;;;12.95;64.49;93008.34;5045087;28;20044;-71
2023/02/23 09:50:38;;;;;;;35.20;10.65;;;;;;;12.89;63.85;93015.22;5069138;28;20098;-71
2023/02/23 09:53:10;;;;;;;27.35;9.15;;;;;;;13.03;62.37;93017.53;5068780;28;20098;-71
2023/02/23 09:55:39;;;;;;;31.63;10.88;;;;;;;13.07;62.53;93009.13;5068387;28;20052;-71
2023/02/23 09:58:17;;;;;;;30.55;10.73;;;;;;;12.91;65.25;92986.66;5068586;28;20102;-71
2023/02/23 10:00:51;;;;;;;24.80;9.48;;;;;;;13.37;67.99;92989.25;5068623;28;20049;-71
2023/02/23 10:03:27;;;;;;;36.80;10.27;;;;;;;13.81;65.40;93005.97;5068827;28;20052;-71
2023/02/23 10:06:00;;;;;;;28.73;9.00;;;;;;;13.61;62.52;93005.41;5068081;28;20066;-71
2023/02/23 10:08:42;;;;;;;25.95;8.80;;;;;;;13.46;59.70;93012.88;5066601;28;20504;-71
2023/02/23 10:11:23;;;;;;;34.60;13.00;;;;;;;13.65;61.06;92994.66;5042450;28;20538;-71
2023/02/23 10:13:59;;;;;;;31.55;11.13;;;;;;;13.53;60.51;92992.13;5067615;28;20040;-71
2023/02/23 10:16:33;;;;;;;;;;;;;;;13.84;59.32;93002.94;5068626;28;20055;-71
2023/02/23 10:19:10;;;;;;;38.05;10.52;;;;;;;13.84;61.20;92995.97;5068417;28;19924;-71
2023/02/23 10:21:40;;;;;;;28.48;10.48;;;;;;;13.60;60.82;92997.91;5068027;28;20045;-71
2023/02/23 10:24:12;;;;;;;24.02;8.82;;;;;;;13.54;60.72;93002.22;5065622;28;20056;-71
2023/02/23 10:26:43;;;;;;;22.63;8.07;;;;;;;13.56;62.72;92964.03;5068405;28;20044;-71
2023/02/23 10:29:20;;;;;;;24.30;8.63;;;;;;;13.82;59.68;92986.88;5068070;28;20048;-71
2023/02/23 10:31:51;;;;;;;23.27;8.60;;;;;;;13.94;58.68;92985.03;5068267;28;20048;-71
2023/02/23 10:34:18;;;;;;;19.20;6.55;;;;;;;14.10;60.88;92955.03;5066368;28;20153;-71
2023/02/23 10:36:50;;;;;;;19.48;7.78;;;;;;;14.55;60.92;92978.34;5058146;28;20053;-71
2023/02/23 10:39:17;;;;;;;22.55;8.70;;;;;;;14.92;61.63;92977.78;5067089;28;20129;-71
2023/02/23 10:41:44;;;;;;;25.10;7.70;;;;;;;14.76;56.56;92956.13;5068039;28;20189;-72
2023/02/23 10:44:18;;;;;;;17.80;7.03;;;;;;;15.12;58.39;92975.63;5067255;28;20055;-71
2023/02/23 10:46:50;;;;;;;24.65;7.18;;;;;;;15.49;58.04;92969.75;5071883;28;20067;-72
2023/02/23 10:49:21;;;;;;;19.90;8.15;;;;;;;15.41;52.38;92954.69;5071634;28;20045;-72
2023/02/23 10:51:50;;;;;;;23.50;7.47;;;;;;;15.85;55.95;92959.69;5066466;28;20044;-72
2023/02/23 10:54:37;;;;;;;23.20;8.63;;;;;;;15.72;53.96;92947.16;5071728;28;20036;-72
2023/02/23 10:57:15;;;;;;;13.93;7.05;;;;;;;15.33;51.28;92951.50;5068807;28;20450;-71
2023/02/23 10:59:59;;;;;;;19.17;7.43;;;;;;;15.06;52.17;92952.31;5071365;28;20055;-71
2023/02/23 11:02:29;;;;;;;18.38;6.90;;;;;;;14.96;53.15;92954.78;5066934;28;20456;-71
2023/02/23 11:04:59;;;;;;;15.38;6.43;;;;;;;14.67;52.43;92955.72;5070491;28;20321;-71
2023/02/23 11:07:30;;;;;;;12.18;5.72;;;;;;;14.72;53.08;92941.31;5070186;28;20040;-72
2023/02/23 11:09:58;;;;;;;15.25;6.10;;;;;;;14.96;51.53;92931.50;5070766;28;20059;-71
2023/02/23 11:12:28;;;;;;;11.90;6.07;;;;;;;15.32;53.39;92933.66;5071205;28;20071;-73
2023/02/23 11:15:26;;;;;;;15.55;7.18;;;;;;;15.49;50.29;92933.53;5071383;28;20045;-73
2023/02/23 11:17:56;;;;;;;16.88;6.80;;;;;;;15.87;54.53;92928.34;5059136;28;20072;-73
2023/02/23 11:20:30;;;;;;;14.20;6.50;;;;;;;16.09;50.97;92930.06;5062689;28;20051;-72
2023/02/23 11:22:57;;;;;;;12.60;7.05;;;;;;;16.25;47.88;92926.53;5071289;28;20044;-72
2023/02/23 11:25:28;;;;;;;11.02;5.90;;;;;;;16.50;47.36;92917.31;5071726;28;20045;-72
2023/02/23 11:27:55;;;;;;;11.82;5.57;;;;;;;16.19;48.08;92919.00;5071393;28;20048;-72
2023/02/23 11:30:28;;;;;;;15.73;6.40;;;;;;;16.52;52.69;92909.31;5070748;28;20045;-72
2023/02/23 11:33:01;;;;;;;12.45;5.28;;;;;;;16.91;51.38;92908.09;5053863;28;20155;-71
2023/02/23 11:35:32;;;;;;;13.18;5.43;;;;;;;17.07;50.20;92890.78;5070268;28;20053;-72
2023/02/23 11:37:59;;;;;;;11.93;5.25;;;;;;;17.28;47.33;92908.97;5070884;28;20105;-71
2023/02/23 11:40:27;;;;;;;7.60;4.63;;;;;;;17.05;43.64;92909.22;5070549;28;20106;-71
2023/02/23 11:42:56;;;;;;;10.63;5.18;;;;;;;17.22;47.28;92906.38;5071101;28;20121;-71
2023/02/23 11:45:26;;;;;;;9.48;4.70;;;;;;;17.38;47.05;92900.41;5069242;28;20048;-72
2023/02/23 11:47:54;;;;;;;10.65;4.80;;;;;;;17.43;44.79;92897.81;5070614;28;20049;-71
2023/02/23 11:50:28;;;;;;;12.18;4.70;;;;;;;16.80;43.16;92910.66;5071313;28;20048;-71
2023/02/23 11:53:03;;;;;;;12.23;5.38;;;;;;;16.51;43.94;92907.72;5044186;28;20550;-71
2023/02/23 11:55:31;;;;;;;10.85;5.18;;;;;;;16.91;47.38;92893.34;5071168;28;20049;-71
2023/02/23 11:58:23;;;;;;;10.13;4.70;;;;;;;17.32;48.38;92894.44;5070086;28;20052;-71
2023/02/23 12:00:57;;;;;;;10.23;5.22;;;;;;;17.54;46.40;92893.41;5066865;28;20037;-71
2023/02/23 12:03:26;;;;;;;10.13;5.10;;;;;;;17.72;45.52;92886.88;5069958;28;20153;-71
2023/02/23 12:05:56;;;;;;;7.78;3.80;;;;;;;17.51;41.65;92884.31;5070799;28;20542;-71
2023/02/23 12:08:35;;;;;;;7.53;3.90;;;;;;;17.54;41.60;92896.00;5069108;28;20131;-71
2023/02/23 12:11:07;;;;;;;7.55;4.57;;;;;;;17.63;42.20;92881.44;5065640;28;20044;-71
2023/02/23 12:13:40;;;;;;;9.48;4.43;;;;;;;17.58;42.03;92882.22;5070635;28;20044;-72
2023/02/23 12:16:15;;;;;;;7.47;4.93;;;;;;;17.58;43.13;92878.84;5070483;28;20416;-71
2023/02/23 12:18:48;;;;;;;7.45;4.57;;;;;;;17.32;43.38;92869.25;5070747;28;20923;-72
2023/02/23 12:21:32;;;;;;;9.18;4.82;;;;;;;17.59;44.47;92880.41;5070591;28;20041;-72
2023/02/23 12:24:12;;;;;;;8.30;3.95;;;;;;;17.62;43.79;92875.47;5070592;28;20037;-72
2023/02/23 12:26:48;;;;;;;9.70;4.57;;;;;;;17.85;44.75;92878.56;5070439;28;20470;-72
2023/02/23 12:29:21;;;;;;;7.70;4.63;;;;;;;18.04;42.01;92878.00;5070391;28;20083;-72
2023/02/23 12:34:44;;;;;;;10.00;4.85;;;;;;;17.96;42.86;92866.31;5063269;28;20049;-71
2023/02/23 12:37:28;;;;;;;12.35;4.68;;;;;;;18.09;43.77;92854.59;5070239;28;20109;-72
2023/02/23 12:40:17;;;;;;;10.48;4.10;;;;;;;18.32;43.00;92859.47;5069988;28;20063;-72
2023/02/23 12:42:58;;;;;;;10.40;4.00;;;;;;;18.37;42.27;92857.63;5069724;28;20076;-72
2023/02/23 12:45:53;;;;;;;8.25;4.35;;;;;;;18.49;40.72;92859.94;5069888;28;20051;-72
2023/02/23 12:48:28;;;;;;;;;;;;;;;18.61;40.17;92861.44;5070526;28;20049;-72
2023/02/23 12:50:57;;;;;;;9.65;5.20;;;;;;;18.37;40.34;92862.81;5069586;28;19920;-72
2023/02/23 12:53:40;;;;;;;11.20;5.22;;;;;;;18.48;44.03;92849.78;5069540;28;20053;-72
2023/02/23 12:56:24;;;;;;;9.75;5.35;;;;;;;18.23;40.47;92851.47;5069712;28;20052;-72